createdAt,value
2023-10-31T00:06:55.665Z,11.26
2023-10-31T00:26:55.637Z,10.85
2023-10-31T00:46:55.744Z,10.59
2023-10-31T01:06:55.634Z,10.44
2023-10-31T01:26:55.618Z,10.41
2023-10-31T01:46:55.574Z,10.26
2023-10-31T02:06:55.637Z,10.27
2023-10-31T02:26:55.620Z,10.32
2023-10-31T02:46:55.541Z,10.19
2023-10-31T03:06:55.503Z,10.37
2023-10-31T03:26:55.543Z,10.22
2023-10-31T03:46:55.573Z,10.22
2023-10-31T04:06:55.511Z,10.31
2023-10-31T04:26:55.465Z,10.18
2023-10-31T04:46:55.543Z,10.06
2023-10-31T05:06:55.475Z,10.05
2023-10-31T05:26:55.491Z,9.96
2023-10-31T05:46:55.364Z,9.83
2023-10-31T06:06:55.487Z,9.89
2023-10-31T06:26:55.385Z,9.98
2023-10-31T06:46:55.369Z,10.03
2023-10-31T07:06:55.399Z,10.11
2023-10-31T07:26:55.355Z,10.21
2023-10-31T07:46:55.323Z,10.34
2023-10-31T08:06:55.347Z,10.43
2023-10-31T08:26:55.228Z,10.49
2023-10-31T08:46:55.284Z,10.70
2023-10-31T09:06:55.243Z,10.79
2023-10-31T09:26:55.227Z,10.84
2023-10-31T09:46:55.160Z,10.79
2023-10-31T10:06:55.243Z,10.89
2023-10-31T10:26:55.162Z,10.90
2023-10-31T10:46:55.326Z,10.92
2023-10-31T11:06:55.395Z,11.06
2023-10-31T11:26:55.552Z,11.36
2023-10-31T11:46:55.149Z,11.36
2023-10-31T12:06:55.350Z,11.35
2023-10-31T12:26:55.315Z,11.45
2023-10-31T12:46:55.012Z,11.48
2023-10-31T13:06:55.211Z,11.86
2023-10-31T13:26:55.271Z,11.64
2023-10-31T13:46:55.326Z,11.46
2023-10-31T14:26:55.312Z,11.64
2023-10-31T14:46:54.925Z,11.63
2023-10-31T15:06:55.035Z,11.51
2023-10-31T15:26:54.890Z,11.46
2023-10-31T15:46:55.158Z,11.49
2023-10-31T16:06:54.841Z,11.33
2023-10-31T16:26:54.907Z,11.41
2023-10-31T16:46:54.802Z,11.17
2023-10-31T17:06:55.068Z,10.93
2023-10-31T17:26:54.773Z,11.03
2023-10-31T17:46:54.992Z,10.97
2023-10-31T18:06:54.886Z,11.06
2023-10-31T18:26:55.017Z,11.28
2023-10-31T18:46:54.918Z,11.31
2023-10-31T19:06:54.869Z,11.34
2023-10-31T19:26:54.874Z,11.24
2023-10-31T19:46:54.841Z,11.04
2023-10-31T20:06:54.838Z,11.01
2023-10-31T20:26:54.936Z,11.08
2023-10-31T20:46:54.577Z,11.20
2023-10-31T21:06:54.833Z,11.24
2023-10-31T21:26:54.840Z,10.85
2023-10-31T21:46:54.657Z,10.74
2023-10-31T22:06:54.721Z,10.61
2023-10-31T22:26:54.574Z,10.41
2023-10-31T22:46:54.481Z,10.49
2023-10-31T23:06:54.560Z,10.44
2023-10-31T23:26:54.753Z,10.46
2023-10-31T23:46:54.653Z,10.58
